sensor_id;sensor_type;location;lat;lon;timestamp;temperature;humidity
65034;DHT22;51601;51.356;12.458;2023-05-29T00:02:40;14.40;54.20
65034;DHT22;51601;51.356;12.458;2023-05-29T00:07:01;14.20;54.60
65034;DHT22;51601;51.356;12.458;2023-05-29T00:11:20;14.10;55.00
65034;DHT22;51601;51.356;12.458;2023-05-29T00:15:39;14.00;55.40
65034;DHT22;51601;51.356;12.458;2023-05-29T00:19:58;13.90;56.20
65034;DHT22;51601;51.356;12.458;2023-05-29T00:24:19;13.70;56.20
65034;DHT22;51601;51.356;12.458;2023-05-29T00:28:38;13.60;56.40
65034;DHT22;51601;51.356;12.458;2023-05-29T00:32:57;13.50;56.50
65034;DHT22;51601;51.356;12.458;2023-05-29T00:37:17;13.40;57.30
65034;DHT22;51601;51.356;12.458;2023-05-29T00:41:35;13.30;57.60
65034;DHT22;51601;51.356;12.458;2023-05-29T00:45:53;13.20;57.90
65034;DHT22;51601;51.356;12.458;2023-05-29T00:50:14;13.10;58.40
65034;DHT22;51601;51.356;12.458;2023-05-29T00:54:32;13.10;58.80
65034;DHT22;51601;51.356;12.458;2023-05-29T00:58:53;13.00;58.80
65034;DHT22;51601;51.356;12.458;2023-05-29T01:03:12;12.90;59.10
65034;DHT22;51601;51.356;12.458;2023-05-29T01:07:37;12.80;59.20
65034;DHT22;51601;51.356;12.458;2023-05-29T01:12:03;12.80;59.50
65034;DHT22;51601;51.356;12.458;2023-05-29T01:16:32;12.70;60.00
65034;DHT22;51601;51.356;12.458;2023-05-29T01:21:01;12.60;60.30
65034;DHT22;51601;51.356;12.458;2023-05-29T01:25:29;12.60;60.40
65034;DHT22;51601;51.356;12.458;2023-05-29T01:29:51;12.60;60.50
65034;DHT22;51601;51.356;12.458;2023-05-29T01:34:10;12.60;60.80
65034;DHT22;51601;51.356;12.458;2023-05-29T01:38:28;12.50;61.10
65034;DHT22;51601;51.356;12.458;2023-05-29T01:42:46;12.50;61.40
65034;DHT22;51601;51.356;12.458;2023-05-29T01:47:06;12.40;61.60
65034;DHT22;51601;51.356;12.458;2023-05-29T01:51:25;12.40;61.70
65034;DHT22;51601;51.356;12.458;2023-05-29T01:55:43;12.40;61.90
65034;DHT22;51601;51.356;12.458;2023-05-29T02:00:02;12.30;62.30
65034;DHT22;51601;51.356;12.458;2023-05-29T02:04:33;12.30;62.70
65034;DHT22;51601;51.356;12.458;2023-05-29T02:08:53;12.30;63.10
65034;DHT22;51601;51.356;12.458;2023-05-29T02:13:11;12.20;63.10
65034;DHT22;51601;51.356;12.458;2023-05-29T02:17:29;12.10;63.30
65034;DHT22;51601;51.356;12.458;2023-05-29T02:21:48;12.10;63.60
65034;DHT22;51601;51.356;12.458;2023-05-29T02:26:08;12.00;63.80
65034;DHT22;51601;51.356;12.458;2023-05-29T02:30:27;11.90;63.90
65034;DHT22;51601;51.356;12.458;2023-05-29T02:34:44;11.90;64.00
65034;DHT22;51601;51.356;12.458;2023-05-29T02:39:04;11.80;64.00
65034;DHT22;51601;51.356;12.458;2023-05-29T02:43:23;11.80;64.50
65034;DHT22;51601;51.356;12.458;2023-05-29T02:47:41;11.70;64.90
65034;DHT22;51601;51.356;12.458;2023-05-29T02:52:00;11.60;65.30
65034;DHT22;51601;51.356;12.458;2023-05-29T02:56:19;11.60;65.60
65034;DHT22;51601;51.356;12.458;2023-05-29T03:00:42;11.50;66.10
65034;DHT22;51601;51.356;12.458;2023-05-29T03:05:00;11.50;66.40
65034;DHT22;51601;51.356;12.458;2023-05-29T03:09:18;11.40;66.70
65034;DHT22;51601;51.356;12.458;2023-05-29T03:13:37;11.30;66.90
65034;DHT22;51601;51.356;12.458;2023-05-29T03:17:57;11.30;67.00
65034;DHT22;51601;51.356;12.458;2023-05-29T03:22:18;11.30;67.30
65034;DHT22;51601;51.356;12.458;2023-05-29T03:26:36;11.20;67.60
65034;DHT22;51601;51.356;12.458;2023-05-29T03:30:56;11.20;68.10
65034;DHT22;51601;51.356;12.458;2023-05-29T03:35:15;11.30;68.50
65034;DHT22;51601;51.356;12.458;2023-05-29T03:39:34;11.50;68.70
65034;DHT22;51601;51.356;12.458;2023-05-29T03:43:55;11.80;68.60
65034;DHT22;51601;51.356;12.458;2023-05-29T03:48:17;12.20;69.10
65034;DHT22;51601;51.356;12.458;2023-05-29T03:52:37;12.70;67.90
65034;DHT22;51601;51.356;12.458;2023-05-29T03:56:55;13.20;67.60
65034;DHT22;51601;51.356;12.458;2023-05-29T04:01:16;13.70;66.70
65034;DHT22;51601;51.356;12.458;2023-05-29T04:05:35;14.30;65.80
65034;DHT22;51601;51.356;12.458;2023-05-29T04:09:56;14.90;64.90
65034;DHT22;51601;51.356;12.458;2023-05-29T04:14:13;15.50;64.10
65034;DHT22;51601;51.356;12.458;2023-05-29T04:18:34;16.10;63.00
65034;DHT22;51601;51.356;12.458;2023-05-29T04:22:54;16.70;61.70
65034;DHT22;51601;51.356;12.458;2023-05-29T04:27:14;17.30;60.50
65034;DHT22;51601;51.356;12.458;2023-05-29T04:31:32;17.90;59.40
65034;DHT22;51601;51.356;12.458;2023-05-29T04:35:53;18.40;58.00
65034;DHT22;51601;51.356;12.458;2023-05-29T04:40:12;19.10;56.80
65034;DHT22;51601;51.356;12.458;2023-05-29T04:44:35;19.60;55.70
65034;DHT22;51601;51.356;12.458;2023-05-29T04:48:53;20.20;54.70
65034;DHT22;51601;51.356;12.458;2023-05-29T04:53:11;20.80;53.30
65034;DHT22;51601;51.356;12.458;2023-05-29T04:57:31;21.40;52.40
65034;DHT22;51601;51.356;12.458;2023-05-29T05:01:50;21.90;51.30
65034;DHT22;51601;51.356;12.458;2023-05-29T05:06:09;22.40;50.20
65034;DHT22;51601;51.356;12.458;2023-05-29T05:10:26;22.90;48.90
65034;DHT22;51601;51.356;12.458;2023-05-29T05:14:46;23.30;47.70
65034;DHT22;51601;51.356;12.458;2023-05-29T05:19:06;23.50;46.60
65034;DHT22;51601;51.356;12.458;2023-05-29T05:23:27;23.80;45.60
65034;DHT22;51601;51.356;12.458;2023-05-29T05:27:45;24.00;45.30
65034;DHT22;51601;51.356;12.458;2023-05-29T05:32:07;24.30;44.60
65034;DHT22;51601;51.356;12.458;2023-05-29T05:36:27;24.60;43.90
65034;DHT22;51601;51.356;12.458;2023-05-29T05:40:51;24.80;43.30
65034;DHT22;51601;51.356;12.458;2023-05-29T05:45:16;25.10;43.00
65034;DHT22;51601;51.356;12.458;2023-05-29T05:49:35;25.40;41.80
65034;DHT22;51601;51.356;12.458;2023-05-29T05:53:55;25.60;41.50
65034;DHT22;51601;51.356;12.458;2023-05-29T05:58:16;25.80;41.30
65034;DHT22;51601;51.356;12.458;2023-05-29T06:02:34;26.10;40.70
65034;DHT22;51601;51.356;12.458;2023-05-29T06:06:54;26.30;40.60
65034;DHT22;51601;51.356;12.458;2023-05-29T06:11:13;26.50;40.20
65034;DHT22;51601;51.356;12.458;2023-05-29T06:15:34;26.80;40.90
65034;DHT22;51601;51.356;12.458;2023-05-29T06:19:52;27.20;39.70
65034;DHT22;51601;51.356;12.458;2023-05-29T06:24:12;27.70;38.80
65034;DHT22;51601;51.356;12.458;2023-05-29T06:28:31;28.00;38.20
65034;DHT22;51601;51.356;12.458;2023-05-29T06:32:49;28.20;37.50
65034;DHT22;51601;51.356;12.458;2023-05-29T06:37:14;28.40;37.60
65034;DHT22;51601;51.356;12.458;2023-05-29T06:41:33;28.60;37.40
65034;DHT22;51601;51.356;12.458;2023-05-29T06:45:53;28.80;37.20
65034;DHT22;51601;51.356;12.458;2023-05-29T06:50:11;29.20;36.90
65034;DHT22;51601;51.356;12.458;2023-05-29T06:54:29;29.60;36.50
65034;DHT22;51601;51.356;12.458;2023-05-29T06:58:48;30.00;35.90
65034;DHT22;51601;51.356;12.458;2023-05-29T07:03:08;30.40;35.50
65034;DHT22;51601;51.356;12.458;2023-05-29T07:07:26;30.80;35.20
65034;DHT22;51601;51.356;12.458;2023-05-29T07:11:44;31.10;34.60
65034;DHT22;51601;51.356;12.458;2023-05-29T07:16:04;31.40;34.30
65034;DHT22;51601;51.356;12.458;2023-05-29T07:20:45;31.70;34.00
65034;DHT22;51601;51.356;12.458;2023-05-29T07:25:06;31.90;33.50
65034;DHT22;51601;51.356;12.458;2023-05-29T07:29:24;32.20;33.40
65034;DHT22;51601;51.356;12.458;2023-05-29T07:33:47;32.80;33.10
65034;DHT22;51601;51.356;12.458;2023-05-29T07:38:06;33.30;32.00
65034;DHT22;51601;51.356;12.458;2023-05-29T07:42:27;33.70;31.40
65034;DHT22;51601;51.356;12.458;2023-05-29T07:46:46;34.00;31.00
65034;DHT22;51601;51.356;12.458;2023-05-29T07:51:23;34.20;30.40
65034;DHT22;51601;51.356;12.458;2023-05-29T07:55:43;34.20;29.60
65034;DHT22;51601;51.356;12.458;2023-05-29T08:00:01;34.00;29.50
65034;DHT22;51601;51.356;12.458;2023-05-29T08:04:35;33.90;29.60
65034;DHT22;51601;51.356;12.458;2023-05-29T08:08:54;33.90;29.50
65034;DHT22;51601;51.356;12.458;2023-05-29T08:13:14;34.00;29.70
65034;DHT22;51601;51.356;12.458;2023-05-29T08:17:35;34.10;28.80
65034;DHT22;51601;51.356;12.458;2023-05-29T08:21:53;34.10;28.90
65034;DHT22;51601;51.356;12.458;2023-05-29T08:26:12;33.90;28.60
65034;DHT22;51601;51.356;12.458;2023-05-29T08:30:32;33.80;29.00
65034;DHT22;51601;51.356;12.458;2023-05-29T08:34:51;33.70;28.50
65034;DHT22;51601;51.356;12.458;2023-05-29T08:39:08;33.30;28.30
65034;DHT22;51601;51.356;12.458;2023-05-29T08:43:30;32.70;28.90
65034;DHT22;51601;51.356;12.458;2023-05-29T08:47:52;32.30;29.20
65034;DHT22;51601;51.356;12.458;2023-05-29T08:52:15;31.90;29.60
65034;DHT22;51601;51.356;12.458;2023-05-29T08:56:33;31.70;29.90
65034;DHT22;51601;51.356;12.458;2023-05-29T09:00:55;31.50;30.30
65034;DHT22;51601;51.356;12.458;2023-05-29T09:05:15;31.30;30.00
65034;DHT22;51601;51.356;12.458;2023-05-29T09:09:34;31.30;30.10
65034;DHT22;51601;51.356;12.458;2023-05-29T09:13:54;31.50;30.00
65034;DHT22;51601;51.356;12.458;2023-05-29T09:18:18;31.70;29.70
65034;DHT22;51601;51.356;12.458;2023-05-29T09:22:36;31.80;29.70
65034;DHT22;51601;51.356;12.458;2023-05-29T09:26:55;31.50;30.00
65034;DHT22;51601;51.356;12.458;2023-05-29T09:31:14;31.50;29.70
65034;DHT22;51601;51.356;12.458;2023-05-29T09:35:36;31.20;30.00
65034;DHT22;51601;51.356;12.458;2023-05-29T09:39:55;31.20;30.20
65034;DHT22;51601;51.356;12.458;2023-05-29T09:44:13;31.00;30.20
65034;DHT22;51601;51.356;12.458;2023-05-29T09:48:31;30.70;30.50
65034;DHT22;51601;51.356;12.458;2023-05-29T09:52:50;30.90;30.80
65034;DHT22;51601;51.356;12.458;2023-05-29T09:57:11;31.40;30.50
65034;DHT22;51601;51.356;12.458;2023-05-29T10:01:31;31.90;30.20
65034;DHT22;51601;51.356;12.458;2023-05-29T10:05:55;32.20;29.40
65034;DHT22;51601;51.356;12.458;2023-05-29T10:10:17;31.70;29.50
65034;DHT22;51601;51.356;12.458;2023-05-29T10:14:35;31.30;29.80
65034;DHT22;51601;51.356;12.458;2023-05-29T10:18:57;31.00;29.90
65034;DHT22;51601;51.356;12.458;2023-05-29T10:23:18;30.80;30.40
65034;DHT22;51601;51.356;12.458;2023-05-29T10:27:39;30.90;30.20
65034;DHT22;51601;51.356;12.458;2023-05-29T10:32:06;30.90;30.10
65034;DHT22;51601;51.356;12.458;2023-05-29T10:36:30;31.10;30.40
65034;DHT22;51601;51.356;12.458;2023-05-29T10:40:48;31.60;30.00
65034;DHT22;51601;51.356;12.458;2023-05-29T10:45:08;32.30;29.40
65034;DHT22;51601;51.356;12.458;2023-05-29T10:49:27;32.70;29.00
65034;DHT22;51601;51.356;12.458;2023-05-29T10:53:45;33.20;28.60
65034;DHT22;51601;51.356;12.458;2023-05-29T10:58:04;33.70;28.10
65034;DHT22;51601;51.356;12.458;2023-05-29T11:02:25;33.80;27.70
65034;DHT22;51601;51.356;12.458;2023-05-29T11:06:46;34.00;27.80
65034;DHT22;51601;51.356;12.458;2023-05-29T11:11:04;34.10;27.20
65034;DHT22;51601;51.356;12.458;2023-05-29T11:15:24;33.90;26.80
65034;DHT22;51601;51.356;12.458;2023-05-29T11:19:47;33.50;26.80
65034;DHT22;51601;51.356;12.458;2023-05-29T11:24:06;32.70;27.10
65034;DHT22;51601;51.356;12.458;2023-05-29T11:28:25;32.30;27.80
65034;DHT22;51601;51.356;12.458;2023-05-29T11:32:47;31.80;28.30
65034;DHT22;51601;51.356;12.458;2023-05-29T11:37:08;31.20;28.40
65034;DHT22;51601;51.356;12.458;2023-05-29T11:41:28;30.80;29.10
65034;DHT22;51601;51.356;12.458;2023-05-29T11:45:46;30.40;29.10
65034;DHT22;51601;51.356;12.458;2023-05-29T11:50:21;29.80;29.50
65034;DHT22;51601;51.356;12.458;2023-05-29T11:54:42;29.10;29.80
65034;DHT22;51601;51.356;12.458;2023-05-29T11:59:05;28.50;30.40
65034;DHT22;51601;51.356;12.458;2023-05-29T12:03:29;27.90;30.80
65034;DHT22;51601;51.356;12.458;2023-05-29T12:07:48;27.50;31.40
65034;DHT22;51601;51.356;12.458;2023-05-29T12:12:09;27.30;31.80
65034;DHT22;51601;51.356;12.458;2023-05-29T12:16:31;27.10;31.90
65034;DHT22;51601;51.356;12.458;2023-05-29T12:20:51;27.00;32.20
65034;DHT22;51601;51.356;12.458;2023-05-29T12:25:16;27.00;32.90
65034;DHT22;51601;51.356;12.458;2023-05-29T12:29:37;26.90;33.10
65034;DHT22;51601;51.356;12.458;2023-05-29T12:34:01;26.80;32.90
65034;DHT22;51601;51.356;12.458;2023-05-29T12:38:18;26.60;33.00
65034;DHT22;51601;51.356;12.458;2023-05-29T12:42:39;26.50;33.10
65034;DHT22;51601;51.356;12.458;2023-05-29T12:46:59;26.30;33.40
65034;DHT22;51601;51.356;12.458;2023-05-29T12:51:22;26.30;34.20
65034;DHT22;51601;51.356;12.458;2023-05-29T12:55:44;26.10;34.30
65034;DHT22;51601;51.356;12.458;2023-05-29T13:00:05;26.00;34.60
65034;DHT22;51601;51.356;12.458;2023-05-29T13:04:29;25.90;35.10
65034;DHT22;51601;51.356;12.458;2023-05-29T13:08:49;25.70;35.50
65034;DHT22;51601;51.356;12.458;2023-05-29T13:13:07;25.40;35.70
65034;DHT22;51601;51.356;12.458;2023-05-29T13:17:28;25.10;36.20
65034;DHT22;51601;51.356;12.458;2023-05-29T13:21:51;24.90;36.10
65034;DHT22;51601;51.356;12.458;2023-05-29T13:26:10;24.70;36.10
65034;DHT22;51601;51.356;12.458;2023-05-29T13:30:30;24.60;36.00
65034;DHT22;51601;51.356;12.458;2023-05-29T13:34:50;24.60;36.50
65034;DHT22;51601;51.356;12.458;2023-05-29T13:39:09;24.60;37.10
65034;DHT22;51601;51.356;12.458;2023-05-29T13:43:29;24.50;36.60
65034;DHT22;51601;51.356;12.458;2023-05-29T13:47:59;24.40;36.10
65034;DHT22;51601;51.356;12.458;2023-05-29T13:52:17;24.40;36.20
65034;DHT22;51601;51.356;12.458;2023-05-29T13:56:37;24.30;35.90
65034;DHT22;51601;51.356;12.458;2023-05-29T14:00:56;24.30;36.10
65034;DHT22;51601;51.356;12.458;2023-05-29T14:05:15;24.30;36.50
65034;DHT22;51601;51.356;12.458;2023-05-29T14:09:33;24.40;36.50
65034;DHT22;51601;51.356;12.458;2023-05-29T14:13:52;24.50;36.50
65034;DHT22;51601;51.356;12.458;2023-05-29T14:18:11;24.60;36.80
65034;DHT22;51601;51.356;12.458;2023-05-29T14:22:30;24.80;36.70
65034;DHT22;51601;51.356;12.458;2023-05-29T14:26:48;25.00;36.00
65034;DHT22;51601;51.356;12.458;2023-05-29T14:31:07;25.00;35.80
65034;DHT22;51601;51.356;12.458;2023-05-29T14:35:27;25.00;35.80
65034;DHT22;51601;51.356;12.458;2023-05-29T14:39:45;25.00;35.90
65034;DHT22;51601;51.356;12.458;2023-05-29T14:44:03;25.00;35.80
65034;DHT22;51601;51.356;12.458;2023-05-29T14:48:22;25.00;36.30
65034;DHT22;51601;51.356;12.458;2023-05-29T14:52:42;24.80;36.70
65034;DHT22;51601;51.356;12.458;2023-05-29T14:57:00;24.70;36.60
65034;DHT22;51601;51.356;12.458;2023-05-29T15:01:18;24.60;36.70
65034;DHT22;51601;51.356;12.458;2023-05-29T15:05:38;24.40;36.80
65034;DHT22;51601;51.356;12.458;2023-05-29T15:09:57;24.30;37.00
65034;DHT22;51601;51.356;12.458;2023-05-29T15:14:16;24.10;37.40
65034;DHT22;51601;51.356;12.458;2023-05-29T15:18:34;23.90;38.30
65034;DHT22;51601;51.356;12.458;2023-05-29T15:22:53;23.70;38.70
65034;DHT22;51601;51.356;12.458;2023-05-29T15:27:13;23.50;39.20
65034;DHT22;51601;51.356;12.458;2023-05-29T15:31:31;23.40;39.50
65034;DHT22;51601;51.356;12.458;2023-05-29T15:35:49;23.30;39.80
65034;DHT22;51601;51.356;12.458;2023-05-29T15:40:09;23.20;39.90
65034;DHT22;51601;51.356;12.458;2023-05-29T15:44:28;23.20;40.10
65034;DHT22;51601;51.356;12.458;2023-05-29T15:48:46;23.10;40.50
65034;DHT22;51601;51.356;12.458;2023-05-29T15:53:07;23.10;41.80
65034;DHT22;51601;51.356;12.458;2023-05-29T15:57:27;23.00;41.10
65034;DHT22;51601;51.356;12.458;2023-05-29T16:01:46;23.00;41.00
65034;DHT22;51601;51.356;12.458;2023-05-29T16:06:05;22.90;41.20
65034;DHT22;51601;51.356;12.458;2023-05-29T16:10:22;22.80;41.20
65034;DHT22;51601;51.356;12.458;2023-05-29T16:14:45;22.70;41.40
65034;DHT22;51601;51.356;12.458;2023-05-29T16:19:05;22.60;41.60
65034;DHT22;51601;51.356;12.458;2023-05-29T16:23:23;22.60;41.50
65034;DHT22;51601;51.356;12.458;2023-05-29T16:27:41;22.50;41.50
65034;DHT22;51601;51.356;12.458;2023-05-29T16:32:00;22.40;41.50
65034;DHT22;51601;51.356;12.458;2023-05-29T16:36:20;22.30;41.60
65034;DHT22;51601;51.356;12.458;2023-05-29T16:40:38;22.20;41.90
65034;DHT22;51601;51.356;12.458;2023-05-29T16:44:56;22.10;42.20
65034;DHT22;51601;51.356;12.458;2023-05-29T16:49:16;22.10;42.70
65034;DHT22;51601;51.356;12.458;2023-05-29T16:53:36;22.00;42.80
65034;DHT22;51601;51.356;12.458;2023-05-29T16:57:56;21.90;43.10
65034;DHT22;51601;51.356;12.458;2023-05-29T17:02:15;21.80;43.30
65034;DHT22;51601;51.356;12.458;2023-05-29T17:06:34;21.80;43.20
65034;DHT22;51601;51.356;12.458;2023-05-29T17:10:54;21.70;43.10
65034;DHT22;51601;51.356;12.458;2023-05-29T17:15:12;21.70;43.30
65034;DHT22;51601;51.356;12.458;2023-05-29T17:19:30;21.60;43.20
65034;DHT22;51601;51.356;12.458;2023-05-29T17:23:49;21.50;43.20
65034;DHT22;51601;51.356;12.458;2023-05-29T17:28:12;21.40;43.00
65034;DHT22;51601;51.356;12.458;2023-05-29T17:32:30;21.30;43.00
65034;DHT22;51601;51.356;12.458;2023-05-29T17:36:48;21.20;43.20
65034;DHT22;51601;51.356;12.458;2023-05-29T17:41:08;21.10;43.40
65034;DHT22;51601;51.356;12.458;2023-05-29T17:45:27;21.00;43.60
65034;DHT22;51601;51.356;12.458;2023-05-29T17:49:45;20.80;43.80
65034;DHT22;51601;51.356;12.458;2023-05-29T17:54:04;20.80;44.20
65034;DHT22;51601;51.356;12.458;2023-05-29T17:58:29;20.60;44.30
65034;DHT22;51601;51.356;12.458;2023-05-29T18:02:49;20.50;44.70
65034;DHT22;51601;51.356;12.458;2023-05-29T18:07:07;20.40;45.80
65034;DHT22;51601;51.356;12.458;2023-05-29T18:11:25;20.30;45.30
65034;DHT22;51601;51.356;12.458;2023-05-29T18:15:44;20.20;45.50
65034;DHT22;51601;51.356;12.458;2023-05-29T18:20:05;20.10;45.80
65034;DHT22;51601;51.356;12.458;2023-05-29T18:24:25;20.00;45.90
65034;DHT22;51601;51.356;12.458;2023-05-29T18:28:43;19.80;46.10
65034;DHT22;51601;51.356;12.458;2023-05-29T18:33:03;19.80;46.30
65034;DHT22;51601;51.356;12.458;2023-05-29T18:37:22;19.70;46.50
65034;DHT22;51601;51.356;12.458;2023-05-29T18:41:40;19.50;46.50
65034;DHT22;51601;51.356;12.458;2023-05-29T18:46:02;19.50;46.70
65034;DHT22;51601;51.356;12.458;2023-05-29T18:50:21;19.30;46.70
65034;DHT22;51601;51.356;12.458;2023-05-29T18:54:41;19.20;46.90
65034;DHT22;51601;51.356;12.458;2023-05-29T18:58:59;19.10;46.90
65034;DHT22;51601;51.356;12.458;2023-05-29T19:03:17;19.00;47.10
65034;DHT22;51601;51.356;12.458;2023-05-29T19:07:36;18.90;47.40
65034;DHT22;51601;51.356;12.458;2023-05-29T19:11:56;18.70;47.70
65034;DHT22;51601;51.356;12.458;2023-05-29T19:16:14;18.60;48.10
65034;DHT22;51601;51.356;12.458;2023-05-29T19:20:32;18.40;48.30
65034;DHT22;51601;51.356;12.458;2023-05-29T19:24:52;18.30;48.60
65034;DHT22;51601;51.356;12.458;2023-05-29T19:29:11;18.20;48.80
65034;DHT22;51601;51.356;12.458;2023-05-29T19:33:29;18.00;48.90
65034;DHT22;51601;51.356;12.458;2023-05-29T19:37:47;17.90;49.10
65034;DHT22;51601;51.356;12.458;2023-05-29T19:42:08;17.80;49.40
65034;DHT22;51601;51.356;12.458;2023-05-29T19:46:27;17.70;49.50
65034;DHT22;51601;51.356;12.458;2023-05-29T19:50:45;17.70;49.70
65034;DHT22;51601;51.356;12.458;2023-05-29T19:55:03;17.60;49.70
65034;DHT22;51601;51.356;12.458;2023-05-29T19:59:25;17.50;49.80
65034;DHT22;51601;51.356;12.458;2023-05-29T20:03:45;17.40;49.90
65034;DHT22;51601;51.356;12.458;2023-05-29T20:08:03;17.40;50.00
65034;DHT22;51601;51.356;12.458;2023-05-29T20:12:21;17.30;50.10
65034;DHT22;51601;51.356;12.458;2023-05-29T20:16:41;17.30;50.20
65034;DHT22;51601;51.356;12.458;2023-05-29T20:21:00;17.20;50.40
65034;DHT22;51601;51.356;12.458;2023-05-29T20:25:18;17.10;51.30
65034;DHT22;51601;51.356;12.458;2023-05-29T20:29:36;17.10;50.60
65034;DHT22;51601;51.356;12.458;2023-05-29T20:33:56;17.00;50.80
65034;DHT22;51601;51.356;12.458;2023-05-29T20:38:16;16.90;50.80
65034;DHT22;51601;51.356;12.458;2023-05-29T20:42:34;16.90;51.00
65034;DHT22;51601;51.356;12.458;2023-05-29T20:46:52;16.80;51.20
65034;DHT22;51601;51.356;12.458;2023-05-29T20:51:15;16.70;51.20
65034;DHT22;51601;51.356;12.458;2023-05-29T20:55:34;16.60;51.40
65034;DHT22;51601;51.356;12.458;2023-05-29T20:59:53;16.50;51.40
65034;DHT22;51601;51.356;12.458;2023-05-29T21:04:10;16.50;51.60
65034;DHT22;51601;51.356;12.458;2023-05-29T21:08:30;16.40;51.70
65034;DHT22;51601;51.356;12.458;2023-05-29T21:12:50;16.40;51.90
65034;DHT22;51601;51.356;12.458;2023-05-29T21:17:11;16.30;52.00
65034;DHT22;51601;51.356;12.458;2023-05-29T21:21:29;16.20;52.00
65034;DHT22;51601;51.356;12.458;2023-05-29T21:25:48;16.10;52.00
65034;DHT22;51601;51.356;12.458;2023-05-29T21:30:09;15.90;52.10
65034;DHT22;51601;51.356;12.458;2023-05-29T21:34:29;15.90;52.20
65034;DHT22;51601;51.356;12.458;2023-05-29T21:38:50;15.80;52.30
65034;DHT22;51601;51.356;12.458;2023-05-29T21:43:12;15.70;52.50
65034;DHT22;51601;51.356;12.458;2023-05-29T21:47:32;15.60;52.60
65034;DHT22;51601;51.356;12.458;2023-05-29T21:51:50;15.50;52.80
65034;DHT22;51601;51.356;12.458;2023-05-29T21:56:08;15.40;52.80
65034;DHT22;51601;51.356;12.458;2023-05-29T22:00:28;15.30;52.90
65034;DHT22;51601;51.356;12.458;2023-05-29T22:04:48;15.20;53.00
65034;DHT22;51601;51.356;12.458;2023-05-29T22:09:06;15.10;53.10
65034;DHT22;51601;51.356;12.458;2023-05-29T22:13:27;15.10;53.30
65034;DHT22;51601;51.356;12.458;2023-05-29T22:17:46;15.00;53.30
65034;DHT22;51601;51.356;12.458;2023-05-29T22:22:06;14.90;53.40
65034;DHT22;51601;51.356;12.458;2023-05-29T22:26:27;14.80;53.40
65034;DHT22;51601;51.356;12.458;2023-05-29T22:30:45;14.80;53.50
65034;DHT22;51601;51.356;12.458;2023-05-29T22:35:05;14.70;53.50
65034;DHT22;51601;51.356;12.458;2023-05-29T22:39:24;14.60;53.50
65034;DHT22;51601;51.356;12.458;2023-05-29T22:43:42;14.50;53.60
65034;DHT22;51601;51.356;12.458;2023-05-29T22:48:01;14.50;53.90
65034;DHT22;51601;51.356;12.458;2023-05-29T22:52:23;14.40;54.10
65034;DHT22;51601;51.356;12.458;2023-05-29T22:56:43;14.30;54.10
65034;DHT22;51601;51.356;12.458;2023-05-29T23:01:01;14.30;54.30
65034;DHT22;51601;51.356;12.458;2023-05-29T23:05:19;14.20;54.30
65034;DHT22;51601;51.356;12.458;2023-05-29T23:09:38;14.10;54.30
65034;DHT22;51601;51.356;12.458;2023-05-29T23:13:58;14.00;54.30
65034;DHT22;51601;51.356;12.458;2023-05-29T23:18:16;14.00;54.40
65034;DHT22;51601;51.356;12.458;2023-05-29T23:22:34;13.90;54.40
65034;DHT22;51601;51.356;12.458;2023-05-29T23:26:54;13.80;54.50
65034;DHT22;51601;51.356;12.458;2023-05-29T23:31:13;13.80;54.60
65034;DHT22;51601;51.356;12.458;2023-05-29T23:35:32;13.70;54.60
65034;DHT22;51601;51.356;12.458;2023-05-29T23:39:49;13.60;54.70
65034;DHT22;51601;51.356;12.458;2023-05-29T23:44:11;13.50;54.60
65034;DHT22;51601;51.356;12.458;2023-05-29T23:48:28;13.40;54.70
65034;DHT22;51601;51.356;12.458;2023-05-29T23:52:47;13.40;55.00
65034;DHT22;51601;51.356;12.458;2023-05-29T23:57:05;13.30;55.40
